Lakepark, Georgia
Current Conditions -  °F | °C
As of 5:53 PM on Wednesday 17 Dec 2014 (Local Time) from KVLD Reporting Station
Broken Clouds Broken Clouds  
Wind Chill: 51°   Ceiling: 9000
Heat Index: 51°   Visibility: 10mi
Dew Point: 44°   Wind: 0mph
Humidity: 77%   Direction: NA
Pressure: 30.12"   Gusts: NA
Location:  30.7146°N, 83.1236°W
Report Text: KVLD 172253Z 00000KT 10SM BKN090 11/07 A3012 RMK AO2 SLP209 T01060067
Loading
Personal Weather Stations






























Interactive Weather Map New forecast layout! Learn more

10-Day Weather Forecast

Advertisements
Track Severe Weather on mobile